Time,TemperatureF,DewpointF,PressureIn,WindDirection,WindDirectionDegrees,WindSpeedMPH,WindSpeedGustMPH,Humidity,HourlyPrecipIn,Conditions,Clouds,dailyrainin,SoftwareType,DateUTC
2013-02-21 00:04:00,30.7,18.9,29.53,NE,45,2.9,2.9,61,0.00,,---,0.00,VWS V14.01,2013-02-21 06:04:00,
2013-02-21 00:09:00,30.7,18.9,29.53,ENE,68,1.3,2.7,61,0.00,,---,0.00,VWS V14.01,2013-02-21 06:09:00,
2013-02-21 00:14:00,30.7,19.6,29.53,East,90,2.5,2.5,63,0.00,,---,0.00,VWS V14.01,2013-02-21 06:14:00,
2013-02-21 00:19:00,30.7,19.3,29.53,ENE,68,2.7,5.4,62,0.00,,---,0.00,VWS V14.01,2013-02-21 06:19:00,
2013-02-21 00:24:00,30.7,19.3,29.53,ENE,68,2.5,6.7,62,0.00,,---,0.00,VWS V14.01,2013-02-21 06:24:00,
2013-02-21 00:29:00,30.7,18.9,29.53,NNE,22,3.4,3.6,61,0.00,,---,0.00,VWS V14.01,2013-02-21 06:29:00,
2013-02-21 00:34:00,30.9,19.1,29.56,East,90,3.6,4.0,61,0.00,,---,0.00,VWS V14.01,2013-02-21 06:34:00,
2013-02-21 00:39:00,30.9,19.5,29.56,ENE,68,3.6,6.0,62,0.00,,---,0.00,VWS V14.01,2013-02-21 06:39:00,
2013-02-21 00:45:00,31.1,19.6,29.56,NNE,22,1.1,1.1,62,0.00,,---,0.00,VWS V14.01,2013-02-21 06:45:00,
2013-02-21 00:50:00,31.1,19.6,29.50,East,90,4.3,5.6,62,0.00,,---,0.00,VWS V14.01,2013-02-21 06:50:00,
2013-02-21 00:55:00,31.1,20.0,29.50,ESE,112,3.6,4.9,63,0.00,,---,0.00,VWS V14.01,2013-02-21 06:55:00,
2013-02-21 01:00:00,31.3,20.2,29.50,ENE,68,3.1,4.7,63,0.00,,---,0.00,VWS V14.01,2013-02-21 07:00:00,
2013-02-21 01:01:00,31.8,21.0,0.00,ESE,112,7.6,7.6,64,0.00,,---,0.00,VWS V14.01,2013-02-21 07:01:00,
2013-02-21 01:05:00,31.3,20.5,29.50,ESE,112,5.4,5.4,64,0.00,,---,0.00,VWS V14.01,2013-02-21 07:05:00,
2013-02-21 01:10:00,31.1,19.6,29.50,SE,135,2.9,6.3,62,0.00,,---,0.00,VWS V14.01,2013-02-21 07:10:00,
2013-02-21 01:15:00,31.1,19.6,29.50,ESE,112,2.0,6.5,62,0.00,,---,0.00,VWS V14.01,2013-02-21 07:15:00,
2013-02-21 01:20:00,31.1,19.6,29.50,ENE,68,7.6,7.6,62,0.00,,---,0.00,VWS V14.01,2013-02-21 07:20:00,
2013-02-21 01:25:00,31.1,19.6,29.50,ESE,112,1.1,3.4,62,0.00,,---,0.00,VWS V14.01,2013-02-21 07:25:00,
2013-02-21 01:30:00,31.1,20.0,29.50,SE,135,2.0,3.8,63,0.00,,---,0.00,VWS V14.01,2013-02-21 07:30:00,
2013-02-21 01:35:00,31.1,19.6,29.50,ENE,68,6.0,6.0,62,0.00,,---,0.00,VWS V14.01,2013-02-21 07:35:00,
2013-02-21 01:40:00,31.1,19.6,29.50,NE,45,2.0,3.4,62,0.00,,---,0.00,VWS V14.01,2013-02-21 07:40:00,
2013-02-21 01:45:00,31.1,20.0,29.50,South,180,4.0,4.0,63,0.00,,---,0.00,VWS V14.01,2013-02-21 07:45:00,
2013-02-21 01:50:00,31.1,19.6,29.50,SE,135,3.4,3.4,62,0.00,,---,0.00,VWS V14.01,2013-02-21 07:50:00,
2013-02-21 01:55:00,31.1,20.0,29.50,SE,135,6.0,6.0,63,0.00,,---,0.00,VWS V14.01,2013-02-21 07:55:00,
2013-02-21 02:00:00,31.1,20.4,29.50,East,90,3.4,4.7,64,0.00,,---,0.00,VWS V14.01,2013-02-21 08:00:00,
2013-02-21 02:05:00,31.3,20.5,29.50,ESE,112,4.3,4.3,64,0.00,,---,0.00,VWS V14.01,2013-02-21 08:05:00,
2013-02-21 02:10:00,31.3,20.5,29.50,ENE,68,2.9,3.6,64,0.00,,---,0.00,VWS V14.01,2013-02-21 08:10:00,
2013-02-21 02:15:00,31.1,20.4,29.50,ENE,68,4.3,6.7,64,0.00,,---,0.00,VWS V14.01,2013-02-21 08:15:00,
2013-02-21 02:20:00,31.1,20.0,29.47,ESE,112,2.5,3.4,63,0.00,,---,0.00,VWS V14.01,2013-02-21 08:20:00,
2013-02-21 02:25:00,31.1,19.6,29.47,ENE,68,2.9,6.0,62,0.00,,---,0.00,VWS V14.01,2013-02-21 08:25:00,
2013-02-21 02:30:00,31.1,19.6,29.47,ENE,68,2.7,6.0,62,0.00,,---,0.00,VWS V14.01,2013-02-21 08:30:00,
2013-02-21 02:35:00,31.1,20.0,29.47,ENE,68,6.3,6.3,63,0.00,,---,0.00,VWS V14.01,2013-02-21 08:35:00,
2013-02-21 02:40:00,31.1,20.0,29.47,East,90,4.3,5.6,63,0.00,,---,0.00,VWS V14.01,2013-02-21 08:40:00,
2013-02-21 02:45:00,30.9,19.5,29.47,ESE,112,3.6,5.8,62,0.00,,---,0.00,VWS V14.01,2013-02-21 08:45:00,
2013-02-21 02:50:00,30.9,19.5,29.44,East,90,2.9,3.8,62,0.00,,---,0.00,VWS V14.01,2013-02-21 08:50:00,
2013-02-21 02:55:00,30.9,19.5,29.44,ESE,112,5.4,5.4,62,0.00,,---,0.00,VWS V14.01,2013-02-21 08:55:00,
2013-02-21 03:00:00,30.9,19.5,29.44,East,90,4.0,6.5,62,0.00,,---,0.00,VWS V14.01,2013-02-21 09:00:00,
2013-02-21 03:05:00,30.9,19.8,29.47,ENE,68,2.5,3.4,63,0.00,,---,0.00,VWS V14.01,2013-02-21 09:05:00,
2013-02-21 03:10:00,31.1,20.4,29.47,ENE,68,2.7,3.8,64,0.00,,---,0.00,VWS V14.01,2013-02-21 09:10:00,
2013-02-21 03:15:00,30.9,20.5,29.47,East,90,3.1,4.0,65,0.00,,---,0.00,VWS V14.01,2013-02-21 09:15:00,
2013-02-21 03:20:00,31.1,20.7,29.44,ESE,112,2.5,4.7,65,0.00,,---,0.00,VWS V14.01,2013-02-21 09:20:00,
2013-02-21 03:25:00,31.1,21.1,29.44,ESE,112,2.9,4.0,66,0.00,,---,0.00,VWS V14.01,2013-02-21 09:25:00,
2013-02-21 03:30:00,31.1,21.1,29.44,NE,45,4.7,5.6,66,0.00,,---,0.00,VWS V14.01,2013-02-21 09:30:00,
2013-02-21 03:35:00,31.1,21.4,29.44,ESE,112,4.9,6.5,67,0.00,,---,0.00,VWS V14.01,2013-02-21 09:35:00,
2013-02-21 03:40:00,31.1,21.4,29.44,East,90,2.2,7.2,67,0.00,,---,0.00,VWS V14.01,2013-02-21 09:40:00,
2013-02-21 03:45:00,31.1,21.1,29.44,East,90,2.5,4.7,66,0.00,,---,0.00,VWS V14.01,2013-02-21 09:45:00,
2013-02-21 03:50:00,31.1,21.1,29.44,ENE,68,2.9,4.3,66,0.00,,---,0.00,VWS V14.01,2013-02-21 09:50:00,
2013-02-21 03:55:00,31.1,21.4,29.44,East,90,2.7,4.0,67,0.00,,---,0.00,VWS V14.01,2013-02-21 09:55:00,
2013-02-21 04:00:00,31.1,22.1,29.44,ENE,68,1.6,2.7,69,0.00,,---,0.00,VWS V14.01,2013-02-21 10:00:00,
2013-02-21 04:05:00,31.1,21.8,29.44,ESE,112,4.3,4.7,68,0.00,,---,0.00,VWS V14.01,2013-02-21 10:05:00,
2013-02-21 04:11:00,31.1,21.8,29.44,SSE,158,4.0,6.5,68,0.00,,---,0.00,VWS V14.01,2013-02-21 10:11:00,
2013-02-21 04:16:00,31.1,21.4,29.44,East,90,2.2,4.0,67,0.00,,---,0.00,VWS V14.01,2013-02-21 10:16:00,
2013-02-21 04:21:00,31.1,21.4,29.44,ESE,112,4.0,5.8,67,0.00,,---,0.00,VWS V14.01,2013-02-21 10:21:00,
2013-02-21 04:26:00,31.1,21.4,29.44,ENE,68,3.8,6.0,67,0.00,,---,0.00,VWS V14.01,2013-02-21 10:26:00,
2013-02-21 04:31:00,31.1,21.4,29.44,East,90,4.0,6.3,67,0.00,,---,0.00,VWS V14.01,2013-02-21 10:31:00,
2013-02-21 04:36:00,31.1,21.4,29.41,ENE,68,2.7,3.6,67,0.00,,---,0.00,VWS V14.01,2013-02-21 10:36:00,
2013-02-21 04:41:00,31.1,21.8,29.41,East,90,3.8,7.6,68,0.00,,---,0.00,VWS V14.01,2013-02-21 10:41:00,
2013-02-21 04:46:00,31.1,21.8,29.41,SSE,158,4.3,6.5,68,0.00,,---,0.00,VWS V14.01,2013-02-21 10:46:00,
2013-02-21 04:51:00,31.1,21.8,29.38,ESE,112,7.6,8.1,68,0.00,,---,0.00,VWS V14.01,2013-02-21 10:51:00,
2013-02-21 04:56:00,31.1,21.8,29.38,ESE,112,3.4,6.9,68,0.00,,---,0.00,VWS V14.01,2013-02-21 10:56:00,
2013-02-21 05:01:00,31.1,22.1,29.38,ESE,112,4.0,6.5,69,0.00,,---,0.00,VWS V14.01,2013-02-21 11:01:00,
2013-02-21 05:06:00,31.1,22.1,29.41,NNE,22,5.8,5.8,69,0.00,,---,0.00,VWS V14.01,2013-02-21 11:06:00,
2013-02-21 05:11:00,31.3,22.3,29.41,ENE,68,4.3,5.8,69,0.00,,---,0.00,VWS V14.01,2013-02-21 11:11:00,
2013-02-21 05:16:00,31.3,22.3,29.41,ENE,68,2.7,8.1,69,0.00,,---,0.00,VWS V14.01,2013-02-21 11:16:00,
2013-02-21 05:21:00,31.3,22.3,29.38,ENE,68,2.7,6.3,69,0.00,,---,0.00,VWS V14.01,2013-02-21 11:21:00,
2013-02-21 05:26:00,31.3,22.6,29.38,SE,135,3.4,6.3,70,0.00,,---,0.00,VWS V14.01,2013-02-21 11:26:00,
2013-02-21 05:31:00,31.3,23.0,29.35,ESE,112,5.4,8.1,71,0.00,,---,0.00,VWS V14.01,2013-02-21 11:31:00,
2013-02-21 05:36:00,31.5,22.8,29.35,ENE,68,4.5,8.7,70,0.00,,---,0.00,VWS V14.01,2013-02-21 11:36:00,
2013-02-21 05:41:00,31.5,22.8,29.35,East,90,3.6,5.8,70,0.00,,---,0.00,VWS V14.01,2013-02-21 11:41:00,
2013-02-21 05:46:00,31.5,23.2,29.38,ENE,68,3.4,8.5,71,0.00,,---,0.00,VWS V14.01,2013-02-21 11:46:00,
2013-02-21 05:51:00,31.5,23.2,29.38,East,90,4.3,5.8,71,0.00,,---,0.00,VWS V14.01,2013-02-21 11:51:00,
2013-02-21 05:56:00,31.5,22.8,29.38,ENE,68,5.4,8.7,70,0.00,,---,0.00,VWS V14.01,2013-02-21 11:56:00,
2013-02-21 06:01:00,31.6,23.3,29.38,East,90,5.4,6.5,71,0.00,,---,0.00,VWS V14.01,2013-02-21 12:01:00,
2013-02-21 06:06:00,31.6,23.3,29.38,East,90,3.8,7.8,71,0.00,,---,0.00,VWS V14.01,2013-02-21 12:06:00,
2013-02-21 06:11:00,31.6,23.7,29.38,SSE,158,7.2,10.1,72,0.00,,---,0.00,VWS V14.01,2013-02-21 12:11:00,
2013-02-21 06:16:00,31.6,23.7,29.38,East,90,4.9,6.5,72,0.00,,---,0.00,VWS V14.01,2013-02-21 12:16:00,
2013-02-21 06:21:00,31.6,23.7,29.38,ENE,68,1.1,4.0,72,0.00,,---,0.00,VWS V14.01,2013-02-21 12:21:00,
2013-02-21 06:26:00,31.6,23.3,29.38,ENE,68,2.0,6.3,71,0.00,,---,0.00,VWS V14.01,2013-02-21 12:26:00,
2013-02-21 06:31:00,31.5,23.2,29.38,East,90,4.9,4.9,71,0.00,,---,0.00,VWS V14.01,2013-02-21 12:31:00,
2013-02-21 06:36:00,31.5,23.2,29.38,ESE,112,4.0,5.4,71,0.00,,---,0.00,VWS V14.01,2013-02-21 12:36:00,
2013-02-21 06:41:00,31.5,23.2,29.38,ENE,68,3.1,7.2,71,0.00,,---,0.00,VWS V14.01,2013-02-21 12:41:00,
2013-02-21 06:46:00,31.3,23.0,29.35,ESE,112,3.1,12.5,71,0.00,,---,0.00,VWS V14.01,2013-02-21 12:46:00,
2013-02-21 06:52:00,31.3,23.0,29.35,East,90,5.8,8.5,71,0.00,,---,0.00,VWS V14.01,2013-02-21 12:52:00,
2013-02-21 06:57:00,31.3,22.6,29.35,ESE,112,7.4,8.7,70,0.00,,---,0.00,VWS V14.01,2013-02-21 12:57:00,
2013-02-21 07:02:00,31.3,22.6,29.35,ENE,68,6.5,7.4,70,0.00,,---,0.00,VWS V14.01,2013-02-21 13:02:00,
2013-02-21 07:07:00,31.3,22.6,29.29,East,90,6.3,7.4,70,0.00,,---,0.00,VWS V14.01,2013-02-21 13:07:00,
2013-02-21 07:12:00,31.3,23.0,29.29,ENE,68,3.4,9.2,71,0.00,,---,0.00,VWS V14.01,2013-02-21 13:12:00,
2013-02-21 07:17:00,31.5,22.8,29.32,ENE,68,4.9,8.5,70,0.00,,---,0.00,VWS V14.01,2013-02-21 13:17:00,
2013-02-21 07:22:00,31.5,22.5,29.32,ESE,112,3.8,4.7,69,0.00,,---,0.00,VWS V14.01,2013-02-21 13:22:00,
2013-02-21 07:27:00,31.5,22.5,29.32,ESE,112,2.5,6.3,69,0.00,,---,0.00,VWS V14.01,2013-02-21 13:27:00,
2013-02-21 07:32:00,31.5,22.1,29.32,SE,135,3.4,5.8,68,0.00,,---,0.00,VWS V14.01,2013-02-21 13:32:00,
2013-02-21 07:37:00,31.5,22.1,29.32,East,90,3.1,9.4,68,0.00,,---,0.00,VWS V14.01,2013-02-21 13:37:00,
2013-02-21 07:42:00,31.5,22.1,29.32,ENE,68,2.0,3.8,68,0.00,,---,0.00,VWS V14.01,2013-02-21 13:42:00,
2013-02-21 07:47:00,31.5,21.8,29.32,ENE,68,2.5,6.0,67,0.00,,---,0.00,VWS V14.01,2013-02-21 13:47:00,
2013-02-21 07:52:00,31.6,22.0,29.32,ENE,68,4.0,4.3,67,0.00,,---,0.00,VWS V14.01,2013-02-21 13:52:00,
2013-02-21 07:57:00,31.6,21.6,29.32,ENE,68,3.6,6.5,66,0.00,,---,0.00,VWS V14.01,2013-02-21 13:57:00,
2013-02-21 08:02:00,31.6,21.2,29.32,NE,45,2.9,6.3,65,0.00,,---,0.00,VWS V14.01,2013-02-21 14:02:00,
2013-02-21 08:07:00,31.6,21.2,29.32,NNE,22,4.9,4.9,65,0.00,,---,0.00,VWS V14.01,2013-02-21 14:07:00,
2013-02-21 08:12:00,31.8,21.0,29.32,ESE,112,2.9,4.3,64,0.00,,---,0.00,VWS V14.01,2013-02-21 14:12:00,
2013-02-21 08:17:00,31.8,21.0,29.32,East,90,4.3,7.6,64,0.00,,---,0.00,VWS V14.01,2013-02-21 14:17:00,
2013-02-21 08:22:00,31.8,21.0,29.32,East,90,3.4,9.2,64,0.00,,---,0.00,VWS V14.01,2013-02-21 14:22:00,
2013-02-21 08:27:00,32.0,22.6,29.32,ENE,68,7.2,10.3,68,0.00,,---,0.00,VWS V14.01,2013-02-21 14:27:00,
2013-02-21 08:32:00,32.2,22.8,29.29,NE,45,1.3,9.4,68,0.00,,---,0.00,VWS V14.01,2013-02-21 14:32:00,
2013-02-21 08:37:00,32.0,22.6,29.29,NW,315,3.8,8.1,68,0.00,,---,0.00,VWS V14.01,2013-02-21 14:37:00,
2013-02-21 08:42:00,32.0,21.9,29.29,NW,315,1.6,7.4,66,0.00,,---,0.00,VWS V14.01,2013-02-21 14:42:00,
2013-02-21 08:47:00,32.0,21.9,29.26,NW,315,1.6,7.4,66,0.00,,---,0.00,VWS V14.01,2013-02-21 14:47:00,
2013-02-21 08:52:00,32.0,21.9,29.26,NW,315,5.4,5.4,66,0.00,,---,0.00,VWS V14.01,2013-02-21 14:52:00,
2013-02-21 08:57:00,32.2,22.1,29.26,NW,315,1.6,5.4,66,0.00,,---,0.00,VWS V14.01,2013-02-21 14:57:00,
2013-02-21 09:02:00,32.2,22.1,29.29,NW,315,3.1,7.4,66,0.00,,---,0.00,VWS V14.01,2013-02-21 15:02:00,
2013-02-21 09:07:00,32.2,22.1,29.29,NW,315,3.6,4.3,66,0.00,,---,0.00,VWS V14.01,2013-02-21 15:07:00,
2013-02-21 09:12:00,32.2,21.8,29.29,NW,315,2.7,5.6,65,0.00,,---,0.00,VWS V14.01,2013-02-21 15:12:00,
2013-02-21 09:17:00,32.5,23.2,29.32,NW,315,2.0,4.3,68,0.00,,---,0.00,VWS V14.01,2013-02-21 15:17:00,
2013-02-21 09:23:00,32.5,23.9,29.32,NW,315,3.4,3.4,70,0.00,,---,0.00,VWS V14.01,2013-02-21 15:23:00,
2013-02-21 09:28:00,32.7,24.4,29.32,NW,315,1.6,5.4,71,0.00,,---,0.00,VWS V14.01,2013-02-21 15:28:00,
2013-02-21 09:33:00,33.1,27.3,29.26,NW,315,5.4,7.4,79,0.05,,---,0.05,VWS V14.01,2013-02-21 15:33:00,
2013-02-21 09:38:00,33.1,27.0,29.26,NW,315,2.9,7.2,78,0.05,,---,0.05,VWS V14.01,2013-02-21 15:38:00,
2013-02-21 09:43:00,33.1,27.3,29.26,NW,315,4.3,6.5,79,0.05,,---,0.05,VWS V14.01,2013-02-21 15:43:00,
2013-02-21 09:48:00,33.1,27.3,29.20,NW,315,3.8,9.8,79,0.09,,---,0.09,VWS V14.01,2013-02-21 15:48:00,
2013-02-21 09:53:00,33.1,27.3,29.20,NW,315,3.4,8.7,79,0.13,,---,0.13,VWS V14.01,2013-02-21 15:53:00,
2013-02-21 09:58:00,33.3,27.5,29.20,NW,315,3.4,8.7,79,0.13,,---,0.13,VWS V14.01,2013-02-21 15:58:00,
2013-02-21 10:03:00,33.3,27.8,29.20,NW,315,6.9,6.9,80,0.13,,---,0.13,VWS V14.01,2013-02-21 16:03:00,
2013-02-21 10:08:00,33.3,28.1,29.20,NW,315,2.2,4.0,81,0.13,,---,0.13,VWS V14.01,2013-02-21 16:08:00,
2013-02-21 10:13:00,33.3,28.4,29.20,NW,315,2.5,2.7,82,0.13,,---,0.13,VWS V14.01,2013-02-21 16:13:00,
2013-02-21 10:18:00,33.4,28.5,29.26,NW,315,5.4,9.6,82,0.21,,---,0.21,VWS V14.01,2013-02-21 16:18:00,
2013-02-21 10:23:00,33.6,28.7,29.26,NW,315,1.3,4.3,82,0.29,,---,0.29,VWS V14.01,2013-02-21 16:23:00,
2013-02-21 10:28:00,33.6,29.0,29.26,NW,315,3.6,5.6,83,0.29,,---,0.29,VWS V14.01,2013-02-21 16:28:00,
2013-02-21 10:33:00,33.6,29.3,29.23,NW,315,1.6,6.3,84,0.29,,---,0.29,VWS V14.01,2013-02-21 16:33:00,
2013-02-21 10:38:00,33.6,29.6,29.23,NW,315,4.0,4.0,85,0.28,,---,0.33,VWS V14.01,2013-02-21 16:38:00,
2013-02-21 10:43:00,33.6,29.6,29.23,NW,315,0.0,4.0,85,0.33,,---,0.38,VWS V14.01,2013-02-21 16:43:00,
2013-02-21 10:48:00,33.8,30.1,29.26,NW,315,0.0,2.7,86,0.33,,---,0.38,VWS V14.01,2013-02-21 16:48:00,
2013-02-21 10:53:00,33.8,30.4,29.26,NW,315,3.4,3.4,87,0.25,,---,0.38,VWS V14.01,2013-02-21 16:53:00,
2013-02-21 10:58:00,33.8,30.1,29.26,NW,315,2.5,6.3,86,0.33,,---,0.46,VWS V14.01,2013-02-21 16:58:00,
2013-02-21 11:04:00,33.8,30.1,29.23,NW,315,2.9,5.4,86,0.33,,---,0.46,VWS V14.01,2013-02-21 17:04:00,
2013-02-21 11:09:00,33.8,30.1,29.23,NW,315,2.0,4.0,86,0.37,,---,0.50,VWS V14.01,2013-02-21 17:09:00,
2013-02-21 11:14:00,34.0,30.5,29.23,NW,315,2.9,2.9,87,0.37,,---,0.50,VWS V14.01,2013-02-21 17:14:00,
2013-02-21 11:19:00,34.0,30.8,29.32,NW,315,0.0,0.0,88,0.33,,---,0.54,VWS V14.01,2013-02-21 17:19:00,
2013-02-21 11:24:00,34.0,31.1,29.32,NW,315,0.0,0.0,89,0.33,,---,0.54,VWS V14.01,2013-02-21 17:24:00,
2013-02-21 11:29:00,34.0,31.1,29.32,NW,315,0.0,0.0,89,0.25,,---,0.54,VWS V14.01,2013-02-21 17:29:00,
2013-02-21 11:34:00,34.0,31.1,29.32,NW,315,0.0,0.0,89,0.25,,---,0.54,VWS V14.01,2013-02-21 17:34:00,
2013-02-21 11:39:00,34.0,31.1,29.32,NW,315,0.0,0.0,89,0.21,,---,0.54,VWS V14.01,2013-02-21 17:39:00,
2013-02-21 11:44:00,34.0,31.1,29.32,NW,315,0.0,0.0,89,0.16,,---,0.54,VWS V14.01,2013-02-21 17:44:00,
2013-02-21 11:49:00,34.0,30.8,29.32,NW,315,0.0,0.0,88,0.16,,---,0.54,VWS V14.01,2013-02-21 17:49:00,
2013-02-21 11:54:00,34.0,30.8,29.32,NW,315,0.0,0.0,88,0.16,,---,0.54,VWS V14.01,2013-02-21 17:54:00,
2013-02-21 11:59:00,34.0,30.8,29.32,NW,315,0.0,0.0,88,0.08,,---,0.54,VWS V14.01,2013-02-21 17:59:00,
2013-02-21 12:04:00,34.0,30.8,29.29,NW,315,0.0,0.0,88,0.08,,---,0.54,VWS V14.01,2013-02-21 18:04:00,
2013-02-21 12:09:00,34.0,30.8,29.29,NW,315,0.0,0.0,88,0.04,,---,0.54,VWS V14.01,2013-02-21 18:09:00,
2013-02-21 12:14:00,34.0,30.8,29.29,NW,315,0.0,0.0,88,0.04,,---,0.54,VWS V14.01,2013-02-21 18:14:00,
2013-02-21 12:19:00,34.2,31.0,29.23,NW,315,0.0,0.0,88,0.05,,---,0.59,VWS V14.01,2013-02-21 18:19:00,
2013-02-21 12:24:00,34.2,31.0,29.23,NW,315,0.0,0.0,88,0.05,,---,0.59,VWS V14.01,2013-02-21 18:24:00,
2013-02-21 12:29:00,34.2,31.0,29.23,NW,315,0.0,0.0,88,0.05,,---,0.59,VWS V14.01,2013-02-21 18:29:00,
2013-02-21 12:34:00,34.2,31.0,29.26,NW,315,0.0,0.0,88,0.05,,---,0.59,VWS V14.01,2013-02-21 18:34:00,
2013-02-21 12:39:00,34.3,31.2,29.26,NW,315,0.0,0.0,88,0.05,,---,0.59,VWS V14.01,2013-02-21 18:39:00,
2013-02-21 12:44:00,34.3,31.2,29.26,NW,315,0.0,0.0,88,0.05,,---,0.59,VWS V14.01,2013-02-21 18:44:00,
2013-02-21 12:49:00,34.3,31.2,29.23,NW,315,0.0,0.0,88,0.05,,---,0.59,VWS V14.01,2013-02-21 18:49:00,
2013-02-21 12:54:00,34.3,31.2,29.23,NW,315,0.0,0.0,88,0.05,,---,0.59,VWS V14.01,2013-02-21 18:54:00,
2013-02-21 13:00:00,34.3,31.2,29.23,NW,315,0.0,0.0,88,0.05,,---,0.59,VWS V14.01,2013-02-21 19:00:00,
2013-02-21 13:05:00,34.3,31.2,29.23,NW,315,0.0,0.0,88,0.05,,---,0.59,VWS V14.01,2013-02-21 19:05:00,
2013-02-21 13:10:00,34.3,31.2,29.23,NW,315,0.0,0.0,88,0.05,,---,0.59,VWS V14.01,2013-02-21 19:10:00,
2013-02-21 13:15:00,34.3,31.2,29.23,NW,315,0.0,0.0,88,0.05,,---,0.59,VWS V14.01,2013-02-21 19:15:00,
2013-02-21 13:20:00,34.3,31.2,29.20,NW,315,0.0,0.0,88,0.00,,---,0.59,VWS V14.01,2013-02-21 19:20:00,
2013-02-21 13:25:00,34.3,31.2,29.20,NW,315,0.0,0.0,88,0.00,,---,0.59,VWS V14.01,2013-02-21 19:25:00,
2013-02-21 13:30:00,34.3,31.2,29.20,NW,315,0.0,0.0,88,0.00,,---,0.59,VWS V14.01,2013-02-21 19:30:00,
2013-02-21 13:35:00,34.3,31.2,29.20,NW,315,0.0,0.0,88,0.00,,---,0.59,VWS V14.01,2013-02-21 19:35:00,
2013-02-21 13:40:00,34.3,31.2,29.20,NW,315,0.0,0.0,88,0.00,,---,0.59,VWS V14.01,2013-02-21 19:40:00,
2013-02-21 13:45:00,34.5,31.3,29.20,NW,315,0.0,0.0,88,0.00,,---,0.59,VWS V14.01,2013-02-21 19:45:00,
2013-02-21 13:50:00,34.5,31.3,29.20,NW,315,0.0,0.0,88,0.00,,---,0.59,VWS V14.01,2013-02-21 19:50:00,
2013-02-21 13:55:00,34.5,31.3,29.20,NW,315,0.0,0.0,88,0.00,,---,0.59,VWS V14.01,2013-02-21 19:55:00,
2013-02-21 14:00:00,34.5,31.6,29.20,NW,315,0.0,0.0,89,0.00,,---,0.59,VWS V14.01,2013-02-21 20:00:00,
2013-02-21 14:06:00,34.5,31.6,29.20,NW,315,0.0,0.0,89,0.00,,---,0.59,VWS V14.01,2013-02-21 20:06:00,
2013-02-21 14:11:00,34.5,31.6,29.20,NW,315,0.0,0.0,89,0.00,,---,0.59,VWS V14.01,2013-02-21 20:11:00,
2013-02-21 14:16:00,34.5,31.6,29.20,NW,315,0.0,0.0,89,0.00,,---,0.59,VWS V14.01,2013-02-21 20:16:00,
2013-02-21 14:21:00,34.7,31.8,29.20,NW,315,0.0,0.0,89,0.00,,---,0.59,VWS V14.01,2013-02-21 20:21:00,
2013-02-21 14:26:00,34.7,31.8,29.20,NW,315,0.0,0.0,89,0.00,,---,0.59,VWS V14.01,2013-02-21 20:26:00,
2013-02-21 14:31:00,34.7,31.8,29.20,NW,315,0.0,0.0,89,0.00,,---,0.59,VWS V14.01,2013-02-21 20:31:00,
2013-02-21 14:36:00,34.7,31.8,29.20,NW,315,0.0,0.0,89,0.00,,---,0.59,VWS V14.01,2013-02-21 20:36:00,
2013-02-21 14:41:00,34.7,31.8,29.20,NW,315,0.0,0.0,89,0.04,,---,0.63,VWS V14.01,2013-02-21 20:41:00,
2013-02-21 14:46:00,34.7,31.8,29.20,NW,315,0.0,0.0,89,0.04,,---,0.63,VWS V14.01,2013-02-21 20:46:00,
2013-02-21 14:51:00,34.7,31.8,29.20,NW,315,2.5,2.5,89,0.04,,---,0.63,VWS V14.01,2013-02-21 20:51:00,
2013-02-21 14:56:00,34.7,31.8,29.20,NW,315,2.9,3.8,89,0.04,,---,0.63,VWS V14.01,2013-02-21 20:56:00,
2013-02-21 15:01:00,34.7,31.8,29.17,NW,315,2.0,2.5,89,0.04,,---,0.63,VWS V14.01,2013-02-21 21:01:00,
2013-02-21 15:06:00,34.7,31.8,29.17,NW,315,1.1,2.5,89,0.04,,---,0.63,VWS V14.01,2013-02-21 21:06:00,
2013-02-21 15:11:00,34.7,31.8,29.17,NW,315,2.5,4.7,89,0.04,,---,0.63,VWS V14.01,2013-02-21 21:11:00,
2013-02-21 15:16:00,34.7,31.8,29.17,NW,315,2.2,3.6,89,0.04,,---,0.63,VWS V14.01,2013-02-21 21:16:00,
2013-02-21 15:21:00,34.7,32.1,29.17,NW,315,2.2,4.7,90,0.04,,---,0.63,VWS V14.01,2013-02-21 21:21:00,
2013-02-21 15:26:00,34.7,32.1,29.17,NW,315,1.3,1.6,90,0.04,,---,0.63,VWS V14.01,2013-02-21 21:26:00,
2013-02-21 15:31:00,34.9,32.2,29.20,NW,315,1.6,5.6,90,0.04,,---,0.63,VWS V14.01,2013-02-21 21:31:00,
2013-02-21 15:36:00,34.7,32.1,29.20,NW,315,1.3,1.6,90,0.04,,---,0.63,VWS V14.01,2013-02-21 21:36:00,
2013-02-21 15:41:00,34.7,32.1,29.20,NW,315,2.9,2.9,90,0.04,,---,0.63,VWS V14.01,2013-02-21 21:41:00,
2013-02-21 15:46:00,34.7,32.1,29.20,NW,315,0.0,1.1,90,0.00,,---,0.63,VWS V14.01,2013-02-21 21:46:00,
2013-02-21 15:51:00,34.9,32.5,29.20,NW,315,2.9,3.4,91,0.00,,---,0.63,VWS V14.01,2013-02-21 21:51:00,
2013-02-21 15:56:00,34.9,32.5,29.20,NW,315,1.1,5.8,91,0.00,,---,0.63,VWS V14.01,2013-02-21 21:56:00,
2013-02-21 16:01:00,34.9,32.5,29.20,NW,315,3.1,3.8,91,0.00,,---,0.63,VWS V14.01,2013-02-21 22:01:00,
2013-02-21 16:06:00,34.9,32.5,29.20,NW,315,5.4,5.4,91,0.00,,---,0.63,VWS V14.01,2013-02-21 22:06:00,
2013-02-21 16:11:00,34.7,32.3,29.20,NW,315,0.0,3.4,91,0.00,,---,0.63,VWS V14.01,2013-02-21 22:11:00,
2013-02-21 16:17:00,34.9,32.5,29.20,NW,315,0.0,1.1,91,0.00,,---,0.63,VWS V14.01,2013-02-21 22:17:00,
2013-02-21 16:22:00,34.9,32.5,29.20,NW,315,0.0,0.0,91,0.00,,---,0.63,VWS V14.01,2013-02-21 22:22:00,
2013-02-21 16:27:00,34.9,32.5,29.20,NW,315,0.0,1.6,91,0.00,,---,0.63,VWS V14.01,2013-02-21 22:27:00,
2013-02-21 16:32:00,34.9,32.5,29.17,NW,315,2.5,3.1,91,0.00,,---,0.63,VWS V14.01,2013-02-21 22:32:00,
2013-02-21 16:37:00,34.9,32.5,29.17,NW,315,1.1,2.7,91,0.00,,---,0.63,VWS V14.01,2013-02-21 22:37:00,
2013-02-21 16:42:00,34.9,32.8,29.17,NW,315,1.6,2.0,92,0.00,,---,0.63,VWS V14.01,2013-02-21 22:42:00,
2013-02-21 16:47:00,34.9,32.8,29.17,NW,315,1.6,3.4,92,0.00,,---,0.63,VWS V14.01,2013-02-21 22:47:00,
2013-02-21 16:52:00,34.9,32.8,29.17,NW,315,1.1,2.0,92,0.00,,---,0.63,VWS V14.01,2013-02-21 22:52:00,
2013-02-21 16:57:00,35.1,33.0,29.17,NW,315,0.0,2.5,92,0.00,,---,0.63,VWS V14.01,2013-02-21 22:57:00,
2013-02-21 17:02:00,34.9,33.1,29.20,NW,315,0.0,2.2,93,0.00,,---,0.63,VWS V14.01,2013-02-21 23:02:00,
2013-02-21 17:07:00,34.9,33.1,29.20,NW,315,1.3,2.0,93,0.00,,---,0.63,VWS V14.01,2013-02-21 23:07:00,
2013-02-21 17:12:00,34.9,33.1,29.20,NW,315,0.0,1.3,93,0.00,,---,0.63,VWS V14.01,2013-02-21 23:12:00,
2013-02-21 17:17:00,34.9,33.1,29.20,NW,315,0.0,0.0,93,0.00,,---,0.63,VWS V14.01,2013-02-21 23:17:00,
2013-02-21 17:22:00,34.7,32.9,29.20,NW,315,0.0,0.9,93,0.00,,---,0.63,VWS V14.01,2013-02-21 23:22:00,
2013-02-21 17:27:00,34.7,32.9,29.20,NW,315,0.0,0.0,93,0.00,,---,0.63,VWS V14.01,2013-02-21 23:27:00,
2013-02-21 17:32:00,34.9,33.1,29.20,NW,315,0.0,0.0,93,0.00,,---,0.63,VWS V14.01,2013-02-21 23:32:00,
2013-02-21 17:37:00,34.7,32.9,29.20,NW,315,0.0,0.0,93,0.00,,---,0.63,VWS V14.01,2013-02-21 23:37:00,
2013-02-21 17:42:00,34.7,32.9,29.20,NW,315,1.6,2.5,93,0.00,,---,0.63,VWS V14.01,2013-02-21 23:42:00,
2013-02-21 17:47:00,34.7,32.9,29.20,NW,315,1.3,1.6,93,0.00,,---,0.63,VWS V14.01,2013-02-21 23:47:00,
2013-02-21 17:52:00,34.7,32.9,29.20,NW,315,1.1,2.5,93,0.00,,---,0.63,VWS V14.01,2013-02-21 23:52:00,
2013-02-21 17:57:00,34.7,33.2,29.20,NW,315,0.9,1.1,94,0.00,,---,0.63,VWS V14.01,2013-02-21 23:57:00,
2013-02-21 18:02:00,34.9,33.3,29.20,NW,315,1.3,1.3,94,0.00,,---,0.63,VWS V14.01,2013-02-22 00:02:00,
2013-02-21 18:07:00,34.7,33.2,29.20,NW,315,1.1,1.1,94,0.00,,---,0.63,VWS V14.01,2013-02-22 00:07:00,
2013-02-21 18:12:00,34.7,33.2,29.20,NW,315,0.0,2.0,94,0.00,,---,0.63,VWS V14.01,2013-02-22 00:12:00,
2013-02-21 18:17:00,34.7,33.2,29.23,NW,315,0.0,0.0,94,0.00,,---,0.63,VWS V14.01,2013-02-22 00:17:00,
2013-02-21 18:22:00,34.7,33.2,29.23,NW,315,0.0,0.0,94,0.00,,---,0.63,VWS V14.01,2013-02-22 00:22:00,
2013-02-21 18:27:00,34.7,33.2,29.23,NW,315,0.0,0.0,94,0.00,,---,0.63,VWS V14.01,2013-02-22 00:27:00,
2013-02-21 18:32:00,34.9,33.3,29.26,NW,315,1.1,1.1,94,0.00,,---,0.63,VWS V14.01,2013-02-22 00:32:00,
2013-02-21 18:37:00,34.7,33.2,29.26,NW,315,0.0,1.3,94,0.00,,---,0.63,VWS V14.01,2013-02-22 00:37:00,
2013-02-21 18:42:00,34.5,33.2,29.26,NW,315,0.0,2.0,95,0.00,,---,0.63,VWS V14.01,2013-02-22 00:42:00,
2013-02-21 18:48:00,34.5,33.2,29.26,NW,315,0.0,0.0,95,0.00,,---,0.63,VWS V14.01,2013-02-22 00:48:00,
2013-02-21 18:53:00,34.5,33.2,29.26,NW,315,0.0,0.0,95,0.04,,---,0.67,VWS V14.01,2013-02-22 00:53:00,
2013-02-21 18:58:00,34.5,33.2,29.26,NW,315,0.0,0.0,95,0.04,,---,0.67,VWS V14.01,2013-02-22 00:58:00,
2013-02-21 19:03:00,34.5,33.2,29.26,NW,315,0.0,0.0,95,0.04,,---,0.67,VWS V14.01,2013-02-22 01:03:00,
2013-02-21 19:08:00,34.5,33.2,29.26,NW,315,0.0,0.0,95,0.04,,---,0.67,VWS V14.01,2013-02-22 01:08:00,
2013-02-21 19:13:00,34.7,33.4,29.26,NW,315,0.0,0.0,95,0.04,,---,0.67,VWS V14.01,2013-02-22 01:13:00,
2013-02-21 19:18:00,34.7,33.4,29.23,NW,315,0.0,0.0,95,0.04,,---,0.67,VWS V14.01,2013-02-22 01:18:00,
2013-02-21 19:23:00,34.5,33.0,29.23,NW,315,0.0,1.6,94,0.04,,---,0.67,VWS V14.01,2013-02-22 01:23:00,
2013-02-21 19:28:00,34.7,33.2,29.23,NW,315,2.0,2.0,94,0.04,,---,0.67,VWS V14.01,2013-02-22 01:28:00,
2013-02-21 19:33:00,34.7,33.4,29.26,NW,315,0.0,1.6,95,0.04,,---,0.67,VWS V14.01,2013-02-22 01:33:00,
2013-02-21 19:38:00,34.7,33.4,29.26,NW,315,1.6,2.5,95,0.04,,---,0.67,VWS V14.01,2013-02-22 01:38:00,
2013-02-21 19:43:00,34.7,33.4,29.26,NW,315,1.1,2.2,95,0.04,,---,0.67,VWS V14.01,2013-02-22 01:43:00,
2013-02-21 19:48:00,34.7,33.4,29.26,NW,315,1.6,2.0,95,0.04,,---,0.67,VWS V14.01,2013-02-22 01:48:00,
2013-02-21 19:53:00,34.7,33.4,29.26,NW,315,2.0,2.2,95,0.04,,---,0.67,VWS V14.01,2013-02-22 01:53:00,
2013-02-21 19:58:00,34.7,33.4,29.26,NW,315,2.0,2.2,95,0.00,,---,0.67,VWS V14.01,2013-02-22 01:58:00,
2013-02-21 20:03:00,34.7,33.2,29.23,NW,315,1.6,2.5,94,0.00,,---,0.67,VWS V14.01,2013-02-22 02:03:00,
2013-02-21 20:08:00,34.5,33.0,29.23,NW,315,0.0,2.0,94,0.00,,---,0.67,VWS V14.01,2013-02-22 02:08:00,
2013-02-21 20:13:00,34.3,32.8,29.23,NW,315,2.7,2.7,94,0.00,,---,0.67,VWS V14.01,2013-02-22 02:13:00,
2013-02-21 20:18:00,34.3,32.8,29.26,NW,315,0.0,2.2,94,0.00,,---,0.67,VWS V14.01,2013-02-22 02:18:00,
2013-02-21 20:23:00,34.3,32.8,29.26,NW,315,0.0,2.0,94,0.00,,---,0.67,VWS V14.01,2013-02-22 02:23:00,
2013-02-21 20:28:00,34.3,32.8,29.26,NW,315,2.0,2.5,94,0.00,,---,0.67,VWS V14.01,2013-02-22 02:28:00,
2013-02-21 20:33:00,34.3,32.8,29.29,NW,315,0.0,1.6,94,0.00,,---,0.67,VWS V14.01,2013-02-22 02:33:00,
2013-02-21 20:38:00,34.3,32.8,29.29,NW,315,2.0,2.0,94,0.00,,---,0.67,VWS V14.01,2013-02-22 02:38:00,
2013-02-21 20:43:00,34.5,33.2,29.29,NW,315,1.6,2.5,95,0.00,,---,0.67,VWS V14.01,2013-02-22 02:43:00,
2013-02-21 20:48:00,34.5,33.5,29.26,NW,315,1.1,1.3,96,0.00,,---,0.67,VWS V14.01,2013-02-22 02:48:00,
2013-02-21 20:53:00,34.5,33.5,29.26,NW,315,0.0,0.9,96,0.00,,---,0.67,VWS V14.01,2013-02-22 02:53:00,
2013-02-21 20:58:00,34.5,33.5,29.26,NW,315,0.0,0.0,96,0.00,,---,0.67,VWS V14.01,2013-02-22 02:58:00,
2013-02-21 21:03:00,34.5,33.5,29.29,NW,315,0.0,0.0,96,0.00,,---,0.67,VWS V14.01,2013-02-22 03:03:00,
2013-02-21 21:08:00,34.5,33.5,29.29,NW,315,0.0,0.0,96,0.00,,---,0.67,VWS V14.01,2013-02-22 03:08:00,
2013-02-21 21:13:00,34.5,33.5,29.29,NW,315,0.0,0.0,96,0.00,,---,0.67,VWS V14.01,2013-02-22 03:13:00,
2013-02-21 21:18:00,34.5,33.5,29.26,NW,315,0.0,0.0,96,0.00,,---,0.67,VWS V14.01,2013-02-22 03:18:00,
2013-02-21 21:23:00,34.5,33.5,29.26,NW,315,0.0,0.0,96,0.00,,---,0.67,VWS V14.01,2013-02-22 03:23:00,
2013-02-21 21:28:00,34.5,33.5,29.26,NW,315,0.0,0.0,96,0.00,,---,0.67,VWS V14.01,2013-02-22 03:28:00,
2013-02-21 21:33:00,34.5,33.5,29.26,NW,315,0.0,0.0,96,0.00,,---,0.67,VWS V14.01,2013-02-22 03:33:00,
2013-02-21 21:38:00,34.5,33.5,29.26,NW,315,0.0,0.0,96,0.00,,---,0.67,VWS V14.01,2013-02-22 03:38:00,
2013-02-21 21:44:00,34.5,33.5,29.26,NW,315,0.0,0.0,96,0.00,,---,0.67,VWS V14.01,2013-02-22 03:44:00,
2013-02-21 21:49:00,34.5,33.5,29.26,NW,315,0.0,0.0,96,0.00,,---,0.67,VWS V14.01,2013-02-22 03:49:00,
2013-02-21 21:54:00,34.5,33.5,29.26,NW,315,0.0,0.0,96,0.00,,---,0.67,VWS V14.01,2013-02-22 03:54:00,
2013-02-21 21:59:00,34.5,33.5,29.26,NW,315,0.0,0.0,96,0.00,,---,0.67,VWS V14.01,2013-02-22 03:59:00,
2013-02-21 22:04:00,34.5,33.5,29.26,NW,315,0.0,0.0,96,0.00,,---,0.67,VWS V14.01,2013-02-22 04:04:00,
2013-02-21 22:09:00,34.5,33.5,29.26,NW,315,0.0,0.0,96,0.00,,---,0.67,VWS V14.01,2013-02-22 04:09:00,
2013-02-21 22:14:00,34.5,33.5,29.26,NW,315,0.0,0.0,96,0.00,,---,0.67,VWS V14.01,2013-02-22 04:14:00,
2013-02-21 22:19:00,34.5,33.5,29.26,NW,315,0.0,0.0,96,0.00,,---,0.67,VWS V14.01,2013-02-22 04:19:00,
2013-02-21 22:24:00,34.7,33.9,29.26,NW,315,0.0,0.0,97,0.00,,---,0.67,VWS V14.01,2013-02-22 04:24:00,
2013-02-21 22:29:00,34.7,33.9,29.26,NW,315,0.0,0.0,97,0.00,,---,0.67,VWS V14.01,2013-02-22 04:29:00,
2013-02-21 22:34:00,34.7,33.9,29.29,NW,315,0.0,0.0,97,0.00,,---,0.67,VWS V14.01,2013-02-22 04:34:00,
2013-02-21 22:39:00,34.7,33.9,29.29,NW,315,0.0,0.0,97,0.00,,---,0.67,VWS V14.01,2013-02-22 04:39:00,
2013-02-21 22:44:00,34.7,33.9,29.29,NW,315,0.0,0.0,97,0.00,,---,0.67,VWS V14.01,2013-02-22 04:44:00,
2013-02-21 22:49:00,34.7,33.9,29.29,NW,315,0.0,0.0,97,0.00,,---,0.67,VWS V14.01,2013-02-22 04:49:00,
2013-02-21 22:54:00,34.7,33.9,29.29,NW,315,0.0,0.0,97,0.00,,---,0.67,VWS V14.01,2013-02-22 04:54:00,
2013-02-21 22:59:00,34.7,33.9,29.29,NW,315,0.0,0.0,97,0.00,,---,0.67,VWS V14.01,2013-02-22 04:59:00,
2013-02-21 23:00:00,34.7,33.9,29.29,NW,315,0.0,0.0,97,0.00,,---,0.67,VWS V14.01,2013-02-22 05:00:00,
2013-02-21 23:01:00,34.7,33.9,29.29,NW,315,0.0,0.0,97,0.00,,---,0.67,VWS V14.01,2013-02-22 05:01:00,
2013-02-21 23:02:00,34.7,33.9,29.29,NW,315,0.0,0.0,97,0.00,,---,0.67,VWS V14.01,2013-02-22 05:02:00,
2013-02-21 23:03:00,34.7,33.9,29.29,NW,315,0.0,0.0,97,0.00,,---,0.67,VWS V14.01,2013-02-22 05:03:00,
2013-02-21 23:08:00,34.7,33.9,29.29,NW,315,1.3,2.9,97,0.00,,---,0.67,VWS V14.01,2013-02-22 05:08:00,
2013-02-21 23:13:00,34.7,33.9,29.29,NW,315,0.0,2.7,97,0.00,,---,0.67,VWS V14.01,2013-02-22 05:13:00,
2013-02-21 23:18:00,34.7,34.2,29.29,NW,315,0.0,1.6,98,0.00,,---,0.67,VWS V14.01,2013-02-22 05:18:00,
2013-02-21 23:23:00,34.7,34.2,29.29,NW,315,0.0,1.6,98,0.00,,---,0.67,VWS V14.01,2013-02-22 05:23:00,
2013-02-21 23:28:00,34.7,34.2,29.29,NW,315,0.0,0.0,98,0.00,,---,0.67,VWS V14.01,2013-02-22 05:28:00,
2013-02-21 23:33:00,34.7,34.2,29.29,NW,315,0.0,0.0,98,0.00,,---,0.67,VWS V14.01,2013-02-22 05:33:00,
2013-02-21 23:38:00,34.7,34.2,29.29,NW,315,2.2,2.2,98,0.00,,---,0.67,VWS V14.01,2013-02-22 05:38:00,
2013-02-21 23:43:00,34.9,34.4,29.29,NW,315,0.0,2.7,98,0.00,,---,0.67,VWS V14.01,2013-02-22 05:43:00,
2013-02-21 23:48:00,34.9,34.4,29.32,NW,315,0.0,2.2,98,0.00,,---,0.67,VWS V14.01,2013-02-22 05:48:00,
2013-02-21 23:53:00,34.7,34.2,29.32,NW,315,2.0,2.7,98,0.00,,---,0.67,VWS V14.01,2013-02-22 05:53:00,
2013-02-21 23:58:00,34.9,34.4,29.32,NW,315,0.0,2.2,98,0.00,,---,0.67,VWS V14.01,2013-02-22 05:58:00,